• Join FlightAware (Why Join?)
  • Login
  • US Flag 
12:12AM EDT


 

Airport Tracker/Info


-or-


 

Live Flight TrackerFlight Track Log ✈ UAL5863 ✈ 13-Dec-2013 ✈ KTYS - KORD

Flight Track Log - Related Links

Times and Time Zones

All times are in EST time to prevent confusion due to time zone crossing. See the UAL5863 flight status page for this flight to view local times or setup timezone preferences in your user account.

Time Position Orientation Groundspeed Altitude Reporting Facility
EST Latitude Longitude Course Direction KTS MPH feet Rate Location/Type
01:12PM 35.8892 -83.9439 348° North 203 234 30,000  Level Atlanta Center
01:13PM 35.9478 -83.9567 350° North 203 234 6,300 -10,980 Descending Atlanta Center
01:14PM 36.0144 -83.9694 351° North 217 250 8,100 1,800 Climbing Atlanta Center
01:15PM 36.0853 -83.9900 347° North 239 275 9,900 1,440 Climbing Atlanta Center
01:16PM 36.2649 -84.2576 348° North  Level Estimated
01:16PM 36.1667 -84.0078 350° North 267 307 11,000  Level Atlanta Center
01:17PM 36.2714 -84.0283 351° North 324 373 12,100 1,140 Climbing Indianapolis Center
01:18PM 36.3858 -84.0558 349° North 348 400 13,600 1,260 Climbing Indianapolis Center
01:19PM 36.4833 -84.0794 349° North 354 407 14,800 1,140 Climbing Indianapolis Center
01:20PM 36.5803 -84.1022 349° North 363 418 16,000 1,020 Climbing Indianapolis Center
01:21PM 36.6808 -84.1253 350° North 365 420 17,000 960 Climbing Indianapolis Center
01:22PM 36.8003 -84.1547 349° North 372 428 18,000 960 Climbing Indianapolis Center
01:23PM 36.9056 -84.1775 350° North 379 436 19,100 960 Climbing Indianapolis Center
01:24PM 37.0117 -84.2044 349° North 386 444 20,100 960 Climbing Indianapolis Center
01:25PM 37.1183 -84.2322 348° North 388 447 21,100 900 Climbing Indianapolis Center
01:26PM 37.2256 -84.2567 350° North 390 449 22,000 960 Climbing Indianapolis Center
01:27PM 37.3336 -84.2842 349° North 394 453 23,200 1,140 Climbing Indianapolis Center
01:28PM 37.4572 -84.3150 349° North 390 449 24,400 960 Climbing Indianapolis Center
01:29PM 37.5622 -84.3419 349° North 384 442 25,300 960 Climbing Indianapolis Center
01:30PM 37.6678 -84.3656 350° North 384 442 26,400 960 Climbing Indianapolis Center
01:31PM 37.7692 -84.3933 348° North 375 432 27,400 960 Climbing Indianapolis Center
01:32PM 37.8617 -84.4378 339° North 359 413 28,500 960 Climbing Indianapolis Center
01:33PM 37.9528 -84.4811 339° North 351 404 29,400 720 Climbing Indianapolis Center
01:34PM 38.0606 -84.5292 341° North 351 404 30,000 240 Climbing Indianapolis Center
01:35PM 38.1600 -84.5761 340° North 373 429 30,000  Level Indianapolis Center
01:36PM 38.2644 -84.6233 340° North 391 450 30,000  Level Indianapolis Center
01:37PM 38.3708 -84.6719 340° North 401 461 30,000  Level Indianapolis Center
01:39PM 38.4783 -84.7197 341° North 406 467 30,000  Level Indianapolis Center
01:40PM 38.6025 -84.7767 340° North 404 465 30,000  Level Indianapolis Center
01:41PM 38.6900 -84.8200 339° North 405 466 30,000  Level Indianapolis Center
01:42PM 38.8175 -84.8786 340° North 406 467 30,000  Level Indianapolis Center
01:43PM 38.9225 -84.9283 340° North 405 466 30,000 -180 Level Indianapolis Center
01:44PM 39.0281 -84.9764 341° North 404 465 29,700 -660 Descending Indianapolis Center
01:45PM 39.1333 -85.0264 340° North 405 466 28,700 -840 Descending Indianapolis Center
01:46PM 39.2406 -85.0764 340° North 409 471 28,000 -360 Descending Indianapolis Center
01:47PM 39.3681 -85.1369 340° North 410 472 28,000  Level Indianapolis Center
01:48PM 39.4747 -85.1875 340° North 410 472 28,000  Level Indianapolis Center
01:49PM 39.5778 -85.2367 340° North 402 463 28,000  Level Indianapolis Center
01:50PM 39.6828 -85.2867 340° North 403 464 28,000  Level Indianapolis Center
01:51PM 39.7878 -85.3361 340° North 404 465 28,000  Level Indianapolis Center
01:52PM 39.9133 -85.3969 340° North 403 464 28,000  Level Indianapolis Center
01:53PM 40.0158 -85.4461 340° North 398 458 28,000 -60 Level Indianapolis Center
01:54PM 40.1192 -85.4961 340° North 398 458 27,900 -780 Descending Indianapolis Center
01:55PM 40.2197 -85.5447 340° North 392 451 26,500 -1,620 Descending Indianapolis Center
01:56PM 40.3242 -85.5961 339° North 398 458 24,600 -1,260 Descending Indianapolis Center
01:57PM 40.4547 -85.6606 339° North 418 481 24,000 -780 Descending Indianapolis Center
01:58PM 40.5306 -85.7628 314° West 399 459 23,100 -1,020 Descending Indianapolis Center
01:59PM 40.5981 -85.8744 309° West 394 453 22,000 -540 Descending Indianapolis Center
02:00PM 40.6631 -85.9836 308° West 383 441 22,000  Level Indianapolis Center
02:01PM 40.7272 -86.0925 308° West 380 437 22,000  Level Indianapolis Center
02:02PM 40.8058 -86.2264 308° West 386 444 22,000  Level Indianapolis Center
02:03PM 40.8706 -86.3381 307° West 386 444 22,000  Level Indianapolis Center
02:04PM 40.9358 -86.4492 308° West 385 443 22,000 -480 Level Indianapolis Center
02:05PM 41.0008 -86.5600 308° West 384 442 21,100 -1,080 Descending Indianapolis Center
02:06PM 41.0644 -86.6708 307° West 382 440 19,800 -1,620 Descending Indianapolis Center
02:07PM 41.1403 -86.8031 307° West 379 436 17,800 -1,920 Descending Indianapolis Center
02:08PM 41.2000 -86.9075 307° West 370 426 15,900 -1,980 Descending Indianapolis Center
02:10PM 41.2828 -87.0508 308° West 338 389 13,000 -1,920 Descending Chicago Center
02:11PM 41.3392 -87.1472 308° West 332 382 11,200 -1,020 Descending Chicago Center
02:12PM 41.3997 -87.2347 313° West 329 379 11,000 -120 Descending Chicago Center
02:13PM 41.4669 -87.3144 318° Northwest 327 376 11,000  Level Chicago Center
02:14PM 41.5522 -87.4031 322° Northwest 328 377 11,000  Level Chicago Center
02:15PM 41.6278 -87.4706 326° Northwest 330 380 11,000  Level Chicago Center
02:16PM 41.6892 -87.5328 323° Northwest 284 327 11,000  Level Chicago Center
02:17PM 41.7433 -87.5967 319° Northwest 265 305 11,000 -720 Level Chicago Center
02:18PM 41.7994 -87.6589 320° Northwest 265 305 9,600 -1,620 Descending Chicago Center
02:19PM 41.8442 -87.7444 305° West 244 281 7,700 -1,260 Descending Chicago Center
02:20PM 41.8597 -87.8331 283° West 246 283 7,000 -360 Descending Chicago Center
02:21PM 41.8731 -87.9211 282° West 244 281 7,000 -60 Level Chicago Center
02:22PM 41.8833 -88.0167 278° West 253 291 6,900 -780 Descending Chicago TRACON
02:23PM 41.8833 -88.1000 270° West 226 260 5,600 -1,260 Descending Chicago TRACON
02:24PM 41.9000 -88.1667 289° West 223 257 4,400 -840 Descending Chicago TRACON
02:25PM 41.9500 -88.1500 14° North 204 235 4,000 -300 Descending Chicago TRACON
02:26PM 41.9667 -88.0667 75° East 193 222 3,800 -720 Descending Chicago TRACON
02:27PM 41.9667 -88.0167 90° East 161 185 2,600 -1,200 Descending Chicago TRACON
02:28PM 41.9667 -87.9667 90° East 124 143 1,400 -1,200 Descending Chicago TRACON